Sharpes, Florida
Current Conditions -  °F | °C
As of 2:58 PM on Sunday 23 Nov 2014 (Local Time) from KXMR Reporting Station
Clear Clear  
Wind Chill: 78°   Ceiling: Unl
Heat Index: 80°   Visibility: 10mi
Dew Point: 71°   Wind: 18mph
Humidity: 80%   Direction: 160°SSE
Pressure: 29.89"   Gusts: NA
Location:  28.43°N, 80.76°W
Report Text: KXMR 231958Z AUTO 16016KT 10SM CLR 26/22 A2989 RMK AO2 SLP125 T02560219 $
Loading
Personal Weather Stations






























Interactive Weather Map New forecast layout! Learn more

10-Day Weather Forecast

Advertisements
Track Severe Weather on mobile